METAR Data
IDs: Format: Raw Decoded Include TAF

Data at: 0257 UTC 15 Aug 2020

PAOR 150253Z AUTO 33005KT 10SM BKN060 OVC080 13/10 A2984 RMK AO2 RAB0156E35 SLP112 P0000 60001 T01280100 56005 TSNO